sensor_id;sensor_type;location;lat;lon;timestamp;P1;durP1;ratioP1;P2;durP2;ratioP2
22515;SDS011;11424;48.860;9.624;2023-05-16T00:02:08;3.1;;;3.4;;
22515;SDS011;11424;48.860;9.624;2023-05-16T00:07:08;3.3;;;3.6;;
22515;SDS011;11424;48.860;9.624;2023-05-16T00:12:08;3.1;;;3.4;;
22515;SDS011;11424;48.860;9.624;2023-05-16T00:17:08;3.1;;;3.4;;
22515;SDS011;11424;48.860;9.624;2023-05-16T00:22:08;3.1;;;3.4;;
22515;SDS011;11424;48.860;9.624;2023-05-16T00:27:08;3.4;;;4.2;;
22515;SDS011;11424;48.860;9.624;2023-05-16T00:32:08;3.7;;;4.1;;
22515;SDS011;11424;48.860;9.624;2023-05-16T00:37:08;3.8;;;4.6;;
22515;SDS011;11424;48.860;9.624;2023-05-16T00:42:08;4;;;4.8;;
22515;SDS011;11424;48.860;9.624;2023-05-16T00:47:08;3.6;;;4.1;;
22515;SDS011;11424;48.860;9.624;2023-05-16T00:52:09;3.6;;;4;;
22515;SDS011;11424;48.860;9.624;2023-05-16T00:57:08;3.4;;;3.8;;
22515;SDS011;11424;48.860;9.624;2023-05-16T01:02:08;3.1;;;3.6;;
22515;SDS011;11424;48.860;9.624;2023-05-16T01:07:09;2.8;;;3.1;;
22515;SDS011;11424;48.860;9.624;2023-05-16T01:12:10;3.1;;;3.4;;
22515;SDS011;11424;48.860;9.624;2023-05-16T01:17:10;3.2;;;3.5;;
22515;SDS011;11424;48.860;9.624;2023-05-16T01:22:10;3.3;;;3.6;;
22515;SDS011;11424;48.860;9.624;2023-05-16T01:27:08;3.2;;;3.5;;
22515;SDS011;11424;48.860;9.624;2023-05-16T01:32:08;3.1;;;3.4;;
22515;SDS011;11424;48.860;9.624;2023-05-16T01:37:11;3;;;3.3;;
22515;SDS011;11424;48.860;9.624;2023-05-16T01:42:09;3.3;;;3.6;;
22515;SDS011;11424;48.860;9.624;2023-05-16T01:47:09;3.5;;;3.9;;
22515;SDS011;11424;48.860;9.624;2023-05-16T01:52:10;3.9;;;4.3;;
22515;SDS011;11424;48.860;9.624;2023-05-16T01:57:09;3.8;;;4.4;;
22515;SDS011;11424;48.860;9.624;2023-05-16T02:02:09;4;;;4.4;;
22515;SDS011;11424;48.860;9.624;2023-05-16T02:07:08;3.8;;;4.2;;
22515;SDS011;11424;48.860;9.624;2023-05-16T02:12:08;3.7;;;4.1;;
22515;SDS011;11424;48.860;9.624;2023-05-16T02:17:08;4;;;4.4;;
22515;SDS011;11424;48.860;9.624;2023-05-16T02:22:08;3.3;;;3.6;;
22515;SDS011;11424;48.860;9.624;2023-05-16T02:27:08;3.3;;;3.9;;
22515;SDS011;11424;48.860;9.624;2023-05-16T02:32:08;3.6;;;3.9;;
22515;SDS011;11424;48.860;9.624;2023-05-16T02:37:09;3.7;;;4.1;;
22515;SDS011;11424;48.860;9.624;2023-05-16T02:42:09;4.3;;;4.8;;
22515;SDS011;11424;48.860;9.624;2023-05-16T02:47:08;4.2;;;4.7;;
22515;SDS011;11424;48.860;9.624;2023-05-16T02:52:09;4.1;;;4.5;;
22515;SDS011;11424;48.860;9.624;2023-05-16T02:57:09;4.4;;;4.9;;
22515;SDS011;11424;48.860;9.624;2023-05-16T03:02:09;4.5;;;5.7;;
22515;SDS011;11424;48.860;9.624;2023-05-16T03:07:09;4.3;;;5.5;;
22515;SDS011;11424;48.860;9.624;2023-05-16T03:12:08;4.8;;;6.3;;
22515;SDS011;11424;48.860;9.624;2023-05-16T03:17:09;4.7;;;5.4;;
22515;SDS011;11424;48.860;9.624;2023-05-16T03:22:08;5;;;5.6;;
22515;SDS011;11424;48.860;9.624;2023-05-16T03:27:09;4.7;;;6.3;;
22515;SDS011;11424;48.860;9.624;2023-05-16T03:32:09;4.9;;;6.3;;
22515;SDS011;11424;48.860;9.624;2023-05-16T03:37:09;5.2;;;6.4;;
22515;SDS011;11424;48.860;9.624;2023-05-16T03:42:09;5.1;;;6.5;;
22515;SDS011;11424;48.860;9.624;2023-05-16T03:47:09;5.3;;;6.3;;
22515;SDS011;11424;48.860;9.624;2023-05-16T03:52:09;5.3;;;6.6;;
22515;SDS011;11424;48.860;9.624;2023-05-16T03:57:09;5.4;;;6.5;;
22515;SDS011;11424;48.860;9.624;2023-05-16T04:02:09;5.5;;;7.6;;
22515;SDS011;11424;48.860;9.624;2023-05-16T04:07:09;5.8;;;7.2;;
22515;SDS011;11424;48.860;9.624;2023-05-16T04:12:09;6;;;7.4;;
22515;SDS011;11424;48.860;9.624;2023-05-16T04:17:09;6.4;;;7.9;;
22515;SDS011;11424;48.860;9.624;2023-05-16T04:22:09;6.2;;;7.7;;
22515;SDS011;11424;48.860;9.624;2023-05-16T04:27:09;6.5;;;8.7;;
22515;SDS011;11424;48.860;9.624;2023-05-16T04:32:09;7.8;;;10.7;;
22515;SDS011;11424;48.860;9.624;2023-05-16T04:37:09;8;;;9.8;;
22515;SDS011;11424;48.860;9.624;2023-05-16T04:42:09;8.2;;;10.5;;
22515;SDS011;11424;48.860;9.624;2023-05-16T04:47:09;10;;;14.5;;
22515;SDS011;11424;48.860;9.624;2023-05-16T04:52:09;10.4;;;14.3;;
22515;SDS011;11424;48.860;9.624;2023-05-16T04:57:09;8.1;;;11.1;;
22515;SDS011;11424;48.860;9.624;2023-05-16T05:02:09;7.7;;;10.4;;
22515;SDS011;11424;48.860;9.624;2023-05-16T05:07:09;7.6;;;10.1;;
22515;SDS011;11424;48.860;9.624;2023-05-16T05:12:09;7.2;;;9.3;;
22515;SDS011;11424;48.860;9.624;2023-05-16T05:17:09;6;;;8.5;;
22515;SDS011;11424;48.860;9.624;2023-05-16T05:22:09;5.9;;;6.7;;
22515;SDS011;11424;48.860;9.624;2023-05-16T05:27:09;7;;;8.8;;
22515;SDS011;11424;48.860;9.624;2023-05-16T05:32:09;8.2;;;11.1;;
22515;SDS011;11424;48.860;9.624;2023-05-16T05:37:09;6.6;;;8.8;;
22515;SDS011;11424;48.860;9.624;2023-05-16T05:42:09;7.6;;;10.2;;
22515;SDS011;11424;48.860;9.624;2023-05-16T05:47:09;7.9;;;11.2;;
22515;SDS011;11424;48.860;9.624;2023-05-16T05:52:09;6.7;;;8.5;;
22515;SDS011;11424;48.860;9.624;2023-05-16T05:57:09;8.4;;;11.4;;
22515;SDS011;11424;48.860;9.624;2023-05-16T06:02:09;11;;;14.6;;
22515;SDS011;11424;48.860;9.624;2023-05-16T06:07:09;11.7;;;16.4;;
22515;SDS011;11424;48.860;9.624;2023-05-16T06:12:09;8.7;;;11.7;;
22515;SDS011;11424;48.860;9.624;2023-05-16T06:17:09;9.4;;;12.1;;
22515;SDS011;11424;48.860;9.624;2023-05-16T06:22:09;12.7;;;17;;
22515;SDS011;11424;48.860;9.624;2023-05-16T06:27:09;10.3;;;13.1;;
22515;SDS011;11424;48.860;9.624;2023-05-16T06:32:09;10.2;;;13.1;;
22515;SDS011;11424;48.860;9.624;2023-05-16T06:37:09;10.2;;;13;;
22515;SDS011;11424;48.860;9.624;2023-05-16T06:42:09;13.9;;;18.7;;
22515;SDS011;11424;48.860;9.624;2023-05-16T06:47:09;13.4;;;17.8;;
22515;SDS011;11424;48.860;9.624;2023-05-16T06:52:09;10;;;13.3;;
22515;SDS011;11424;48.860;9.624;2023-05-16T06:57:09;11.7;;;15.1;;
22515;SDS011;11424;48.860;9.624;2023-05-16T07:02:09;9.6;;;12.6;;
22515;SDS011;11424;48.860;9.624;2023-05-16T07:07:09;10.9;;;15.3;;
22515;SDS011;11424;48.860;9.624;2023-05-16T07:12:09;9.7;;;12.9;;
22515;SDS011;11424;48.860;9.624;2023-05-16T07:17:09;10.7;;;14;;
22515;SDS011;11424;48.860;9.624;2023-05-16T07:22:09;11.9;;;15.1;;
22515;SDS011;11424;48.860;9.624;2023-05-16T07:27:09;9.3;;;11.9;;
22515;SDS011;11424;48.860;9.624;2023-05-16T07:32:09;10.3;;;13.3;;
22515;SDS011;11424;48.860;9.624;2023-05-16T07:37:09;9.1;;;12.4;;
22515;SDS011;11424;48.860;9.624;2023-05-16T07:42:09;8.8;;;11.2;;
22515;SDS011;11424;48.860;9.624;2023-05-16T07:47:09;7.5;;;9.4;;
22515;SDS011;11424;48.860;9.624;2023-05-16T07:52:09;9.7;;;11.5;;
22515;SDS011;11424;48.860;9.624;2023-05-16T07:57:09;10.1;;;13.3;;
22515;SDS011;11424;48.860;9.624;2023-05-16T08:02:09;10.7;;;13.2;;
22515;SDS011;11424;48.860;9.624;2023-05-16T08:07:09;9.1;;;11.6;;
22515;SDS011;11424;48.860;9.624;2023-05-16T08:12:09;10.2;;;12.2;;
22515;SDS011;11424;48.860;9.624;2023-05-16T08:17:09;10;;;13.5;;
22515;SDS011;11424;48.860;9.624;2023-05-16T08:22:09;8.9;;;11.5;;
22515;SDS011;11424;48.860;9.624;2023-05-16T08:27:09;7.7;;;9.1;;
22515;SDS011;11424;48.860;9.624;2023-05-16T08:32:09;9.7;;;12;;
22515;SDS011;11424;48.860;9.624;2023-05-16T08:37:09;8.2;;;10.2;;
22515;SDS011;11424;48.860;9.624;2023-05-16T08:42:09;7;;;8.4;;
22515;SDS011;11424;48.860;9.624;2023-05-16T08:47:10;8.6;;;11.2;;
22515;SDS011;11424;48.860;9.624;2023-05-16T08:52:09;9.3;;;11.8;;
22515;SDS011;11424;48.860;9.624;2023-05-16T08:57:09;7.5;;;8.6;;
22515;SDS011;11424;48.860;9.624;2023-05-16T09:02:09;8.7;;;11.1;;
22515;SDS011;11424;48.860;9.624;2023-05-16T09:07:09;9;;;11.8;;
22515;SDS011;11424;48.860;9.624;2023-05-16T09:12:09;9.1;;;11.5;;
22515;SDS011;11424;48.860;9.624;2023-05-16T09:17:09;8.8;;;11;;
22515;SDS011;11424;48.860;9.624;2023-05-16T09:22:10;7.9;;;9.7;;
22515;SDS011;11424;48.860;9.624;2023-05-16T09:27:09;9.1;;;11.3;;
22515;SDS011;11424;48.860;9.624;2023-05-16T09:32:09;6.5;;;7.9;;
22515;SDS011;11424;48.860;9.624;2023-05-16T09:37:09;7.1;;;9.8;;
22515;SDS011;11424;48.860;9.624;2023-05-16T09:57:09;9.7;;;12.8;;
22515;SDS011;11424;48.860;9.624;2023-05-16T10:02:09;9.1;;;13.2;;
22515;SDS011;11424;48.860;9.624;2023-05-16T10:07:09;8.6;;;10.7;;
22515;SDS011;11424;48.860;9.624;2023-05-16T10:12:09;8;;;9.8;;
22515;SDS011;11424;48.860;9.624;2023-05-16T10:17:10;7.6;;;9.3;;
22515;SDS011;11424;48.860;9.624;2023-05-16T10:22:09;8.5;;;11.1;;
22515;SDS011;11424;48.860;9.624;2023-05-16T10:27:09;8.6;;;10.5;;
22515;SDS011;11424;48.860;9.624;2023-05-16T10:32:09;8.7;;;11.2;;
22515;SDS011;11424;48.860;9.624;2023-05-16T10:37:09;10.1;;;13.2;;
22515;SDS011;11424;48.860;9.624;2023-05-16T10:42:09;8.9;;;10.9;;
22515;SDS011;11424;48.860;9.624;2023-05-16T10:47:09;8.8;;;12;;
22515;SDS011;11424;48.860;9.624;2023-05-16T10:52:09;8.4;;;11.3;;
22515;SDS011;11424;48.860;9.624;2023-05-16T10:57:10;8.5;;;10.7;;
22515;SDS011;11424;48.860;9.624;2023-05-16T11:02:25;9.4;;;13;;
22515;SDS011;11424;48.860;9.624;2023-05-16T11:07:09;7.7;;;11.2;;
22515;SDS011;11424;48.860;9.624;2023-05-16T11:12:09;10.6;;;14.4;;
22515;SDS011;11424;48.860;9.624;2023-05-16T11:17:09;10.7;;;13.7;;
22515;SDS011;11424;48.860;9.624;2023-05-16T11:22:10;9;;;11.5;;
22515;SDS011;11424;48.860;9.624;2023-05-16T11:27:09;8.8;;;12;;
22515;SDS011;11424;48.860;9.624;2023-05-16T11:32:09;9.9;;;13.9;;
22515;SDS011;11424;48.860;9.624;2023-05-16T11:37:09;9.7;;;12.5;;
22515;SDS011;11424;48.860;9.624;2023-05-16T11:42:09;10.5;;;14.1;;
22515;SDS011;11424;48.860;9.624;2023-05-16T11:47:09;10.2;;;13.4;;
22515;SDS011;11424;48.860;9.624;2023-05-16T11:52:09;8.3;;;10.7;;
22515;SDS011;11424;48.860;9.624;2023-05-16T11:57:09;8.8;;;12.6;;
22515;SDS011;11424;48.860;9.624;2023-05-16T12:02:09;9.6;;;12.3;;
22515;SDS011;11424;48.860;9.624;2023-05-16T12:07:09;9.3;;;11.4;;
22515;SDS011;11424;48.860;9.624;2023-05-16T12:12:09;9.8;;;13.1;;
22515;SDS011;11424;48.860;9.624;2023-05-16T12:17:09;7.9;;;9.9;;
22515;SDS011;11424;48.860;9.624;2023-05-16T12:22:14;10.2;;;13.4;;
22515;SDS011;11424;48.860;9.624;2023-05-16T12:27:10;8.9;;;11.7;;
22515;SDS011;11424;48.860;9.624;2023-05-16T12:32:09;7.8;;;9.9;;
22515;SDS011;11424;48.860;9.624;2023-05-16T12:37:09;7.6;;;9.2;;
22515;SDS011;11424;48.860;9.624;2023-05-16T12:42:10;8.8;;;12.3;;
22515;SDS011;11424;48.860;9.624;2023-05-16T12:47:10;7.4;;;9.7;;
22515;SDS011;11424;48.860;9.624;2023-05-16T12:52:09;6;;;8.2;;
22515;SDS011;11424;48.860;9.624;2023-05-16T12:57:09;5.9;;;7.6;;
22515;SDS011;11424;48.860;9.624;2023-05-16T13:02:09;7.1;;;8.8;;
22515;SDS011;11424;48.860;9.624;2023-05-16T13:07:09;7.5;;;8.8;;
22515;SDS011;11424;48.860;9.624;2023-05-16T13:12:09;6;;;7.3;;
22515;SDS011;11424;48.860;9.624;2023-05-16T13:17:09;6.8;;;8.3;;
22515;SDS011;11424;48.860;9.624;2023-05-16T13:22:09;6.8;;;8.8;;
22515;SDS011;11424;48.860;9.624;2023-05-16T13:27:09;5.1;;;5.7;;
22515;SDS011;11424;48.860;9.624;2023-05-16T13:32:09;8;;;10.2;;
22515;SDS011;11424;48.860;9.624;2023-05-16T13:37:09;5.7;;;7;;
22515;SDS011;11424;48.860;9.624;2023-05-16T13:42:09;6.9;;;10.1;;
22515;SDS011;11424;48.860;9.624;2023-05-16T13:47:09;5.9;;;7.5;;
22515;SDS011;11424;48.860;9.624;2023-05-16T13:52:09;6;;;7.7;;
22515;SDS011;11424;48.860;9.624;2023-05-16T13:57:09;6;;;8.4;;
22515;SDS011;11424;48.860;9.624;2023-05-16T14:02:09;5.4;;;8.3;;
22515;SDS011;11424;48.860;9.624;2023-05-16T14:07:09;5.3;;;6.1;;
22515;SDS011;11424;48.860;9.624;2023-05-16T14:12:09;5.7;;;7.5;;
22515;SDS011;11424;48.860;9.624;2023-05-16T14:17:09;5.6;;;7.7;;
22515;SDS011;11424;48.860;9.624;2023-05-16T14:22:09;5.1;;;7.3;;
22515;SDS011;11424;48.860;9.624;2023-05-16T14:27:09;5.7;;;7.3;;
22515;SDS011;11424;48.860;9.624;2023-05-16T14:32:09;5.5;;;7.2;;
22515;SDS011;11424;48.860;9.624;2023-05-16T14:37:09;5.1;;;6.1;;
22515;SDS011;11424;48.860;9.624;2023-05-16T14:42:09;5;;;7.3;;
22515;SDS011;11424;48.860;9.624;2023-05-16T14:47:09;4.5;;;6.1;;
22515;SDS011;11424;48.860;9.624;2023-05-16T14:52:10;4.6;;;5.4;;
22515;SDS011;11424;48.860;9.624;2023-05-16T14:57:09;4.4;;;5.2;;
22515;SDS011;11424;48.860;9.624;2023-05-16T15:02:09;3.9;;;4.4;;
22515;SDS011;11424;48.860;9.624;2023-05-16T15:07:09;3.7;;;4.1;;
22515;SDS011;11424;48.860;9.624;2023-05-16T15:12:09;4;;;4.5;;
22515;SDS011;11424;48.860;9.624;2023-05-16T15:17:09;3.5;;;5.2;;
22515;SDS011;11424;48.860;9.624;2023-05-16T15:22:09;3.5;;;4.3;;
22515;SDS011;11424;48.860;9.624;2023-05-16T15:27:10;3.2;;;3.5;;
22515;SDS011;11424;48.860;9.624;2023-05-16T15:32:09;3;;;3.3;;
22515;SDS011;11424;48.860;9.624;2023-05-16T15:37:09;3.3;;;3.6;;
22515;SDS011;11424;48.860;9.624;2023-05-16T15:42:09;3.1;;;3.4;;
22515;SDS011;11424;48.860;9.624;2023-05-16T15:47:09;1.9;;;2.1;;
22515;SDS011;11424;48.860;9.624;2023-05-16T15:52:09;2.7;;;3.1;;
22515;SDS011;11424;48.860;9.624;2023-05-16T15:57:09;2.7;;;2.9;;
22515;SDS011;11424;48.860;9.624;2023-05-16T16:02:09;2.8;;;3;;
22515;SDS011;11424;48.860;9.624;2023-05-16T16:07:09;2.8;;;3.1;;
22515;SDS011;11424;48.860;9.624;2023-05-16T16:12:09;2.7;;;3.3;;
22515;SDS011;11424;48.860;9.624;2023-05-16T16:17:09;2.4;;;2.6;;
22515;SDS011;11424;48.860;9.624;2023-05-16T16:22:09;2.3;;;2.9;;
22515;SDS011;11424;48.860;9.624;2023-05-16T16:27:09;2.3;;;2.5;;
22515;SDS011;11424;48.860;9.624;2023-05-16T16:32:09;2.2;;;2.4;;
22515;SDS011;11424;48.860;9.624;2023-05-16T16:37:09;2.3;;;2.8;;
22515;SDS011;11424;48.860;9.624;2023-05-16T16:42:09;2.3;;;2.5;;
22515;SDS011;11424;48.860;9.624;2023-05-16T16:47:09;2.4;;;2.6;;
22515;SDS011;11424;48.860;9.624;2023-05-16T16:52:09;2.2;;;3.8;;
22515;SDS011;11424;48.860;9.624;2023-05-16T16:57:09;1.5;;;1.6;;
22515;SDS011;11424;48.860;9.624;2023-05-16T17:02:09;1.6;;;1.7;;
22515;SDS011;11424;48.860;9.624;2023-05-16T17:07:09;1.8;;;1.9;;
22515;SDS011;11424;48.860;9.624;2023-05-16T17:12:09;1.6;;;1.7;;
22515;SDS011;11424;48.860;9.624;2023-05-16T17:17:09;1.7;;;1.9;;
22515;SDS011;11424;48.860;9.624;2023-05-16T17:22:09;2;;;2.3;;
22515;SDS011;11424;48.860;9.624;2023-05-16T17:27:09;2;;;2.8;;
22515;SDS011;11424;48.860;9.624;2023-05-16T17:32:09;1.5;;;1.6;;
22515;SDS011;11424;48.860;9.624;2023-05-16T17:37:09;1.4;;;1.5;;
22515;SDS011;11424;48.860;9.624;2023-05-16T17:42:09;1.6;;;1.7;;
22515;SDS011;11424;48.860;9.624;2023-05-16T17:47:09;1.5;;;1.6;;
22515;SDS011;11424;48.860;9.624;2023-05-16T17:52:09;1.5;;;2;;
22515;SDS011;11424;48.860;9.624;2023-05-16T17:57:10;1.3;;;1.4;;
22515;SDS011;11424;48.860;9.624;2023-05-16T18:02:09;1.4;;;1.5;;
22515;SDS011;11424;48.860;9.624;2023-05-16T18:07:10;1.3;;;1.6;;
22515;SDS011;11424;48.860;9.624;2023-05-16T18:12:10;1.3;;;1.4;;
22515;SDS011;11424;48.860;9.624;2023-05-16T18:17:10;1.3;;;1.7;;
22515;SDS011;11424;48.860;9.624;2023-05-16T18:22:10;1.5;;;1.9;;
22515;SDS011;11424;48.860;9.624;2023-05-16T18:27:09;1.5;;;1.6;;
22515;SDS011;11424;48.860;9.624;2023-05-16T18:32:10;1.3;;;1.4;;
22515;SDS011;11424;48.860;9.624;2023-05-16T18:37:10;1.2;;;1.4;;
22515;SDS011;11424;48.860;9.624;2023-05-16T18:42:10;1.4;;;1.7;;
22515;SDS011;11424;48.860;9.624;2023-05-16T18:47:10;1.2;;;1.3;;
22515;SDS011;11424;48.860;9.624;2023-05-16T18:52:10;1.5;;;1.9;;
22515;SDS011;11424;48.860;9.624;2023-05-16T18:57:09;1.4;;;2;;
22515;SDS011;11424;48.860;9.624;2023-05-16T19:02:10;1.4;;;1.7;;
22515;SDS011;11424;48.860;9.624;2023-05-16T19:07:10;2;;;3.3;;
22515;SDS011;11424;48.860;9.624;2023-05-16T19:12:10;2.5;;;3.5;;
22515;SDS011;11424;48.860;9.624;2023-05-16T19:17:10;2;;;2.2;;
22515;SDS011;11424;48.860;9.624;2023-05-16T19:22:10;1.9;;;2.2;;
22515;SDS011;11424;48.860;9.624;2023-05-16T19:27:10;1.8;;;2.7;;
22515;SDS011;11424;48.860;9.624;2023-05-16T19:32:10;1.5;;;1.6;;
22515;SDS011;11424;48.860;9.624;2023-05-16T19:37:10;1.3;;;1.4;;
22515;SDS011;11424;48.860;9.624;2023-05-16T19:42:10;1.2;;;1.3;;
22515;SDS011;11424;48.860;9.624;2023-05-16T19:47:10;1;;;1;;
22515;SDS011;11424;48.860;9.624;2023-05-16T19:52:10;1.4;;;1.8;;
22515;SDS011;11424;48.860;9.624;2023-05-16T19:57:10;1.1;;;1.3;;
22515;SDS011;11424;48.860;9.624;2023-05-16T20:02:10;1.2;;;1.3;;
22515;SDS011;11424;48.860;9.624;2023-05-16T20:07:10;1;;;1;;
22515;SDS011;11424;48.860;9.624;2023-05-16T20:12:10;1.1;;;1.2;;
22515;SDS011;11424;48.860;9.624;2023-05-16T20:17:10;1.2;;;1.6;;
22515;SDS011;11424;48.860;9.624;2023-05-16T20:22:10;1.1;;;1.5;;
22515;SDS011;11424;48.860;9.624;2023-05-16T20:27:10;1;;;1.1;;
22515;SDS011;11424;48.860;9.624;2023-05-16T20:32:10;1.2;;;1.3;;
22515;SDS011;11424;48.860;9.624;2023-05-16T20:37:10;1.1;;;1.9;;
22515;SDS011;11424;48.860;9.624;2023-05-16T20:42:10;1;;;1;;
22515;SDS011;11424;48.860;9.624;2023-05-16T20:47:10;1;;;1.8;;
22515;SDS011;11424;48.860;9.624;2023-05-16T20:52:10;0.9;;;1.2;;
22515;SDS011;11424;48.860;9.624;2023-05-16T20:57:10;0.9;;;1.1;;
22515;SDS011;11424;48.860;9.624;2023-05-16T21:02:10;1;;;2.4;;
22515;SDS011;11424;48.860;9.624;2023-05-16T21:07:10;1.1;;;1.2;;
22515;SDS011;11424;48.860;9.624;2023-05-16T21:12:10;0.8;;;0.8;;
22515;SDS011;11424;48.860;9.624;2023-05-16T21:17:10;0.8;;;0.9;;
22515;SDS011;11424;48.860;9.624;2023-05-16T21:22:10;0.9;;;0.9;;
22515;SDS011;11424;48.860;9.624;2023-05-16T21:27:10;0.9;;;1.6;;
22515;SDS011;11424;48.860;9.624;2023-05-16T21:32:10;0.8;;;0.8;;
22515;SDS011;11424;48.860;9.624;2023-05-16T21:37:10;0.9;;;1.2;;
22515;SDS011;11424;48.860;9.624;2023-05-16T21:42:10;0.9;;;1.1;;
22515;SDS011;11424;48.860;9.624;2023-05-16T21:47:10;0.8;;;0.9;;
22515;SDS011;11424;48.860;9.624;2023-05-16T21:52:10;0.7;;;0.7;;
22515;SDS011;11424;48.860;9.624;2023-05-16T21:57:10;0.8;;;1;;
22515;SDS011;11424;48.860;9.624;2023-05-16T22:02:10;0.9;;;1.9;;
22515;SDS011;11424;48.860;9.624;2023-05-16T22:07:10;0.8;;;0.8;;
22515;SDS011;11424;48.860;9.624;2023-05-16T22:12:10;0.9;;;1.3;;
22515;SDS011;11424;48.860;9.624;2023-05-16T22:17:10;0.9;;;0.9;;
22515;SDS011;11424;48.860;9.624;2023-05-16T22:22:10;0.6;;;1;;
22515;SDS011;11424;48.860;9.624;2023-05-16T22:27:10;0.9;;;1;;
22515;SDS011;11424;48.860;9.624;2023-05-16T22:32:10;1;;;1.3;;
22515;SDS011;11424;48.860;9.624;2023-05-16T22:37:10;0.7;;;0.8;;
22515;SDS011;11424;48.860;9.624;2023-05-16T22:42:10;0.7;;;1.6;;
22515;SDS011;11424;48.860;9.624;2023-05-16T22:47:10;1;;;1.1;;
22515;SDS011;11424;48.860;9.624;2023-05-16T22:52:10;1;;;1.5;;
22515;SDS011;11424;48.860;9.624;2023-05-16T22:57:10;1.1;;;1.9;;
22515;SDS011;11424;48.860;9.624;2023-05-16T23:02:10;0.8;;;1;;
22515;SDS011;11424;48.860;9.624;2023-05-16T23:07:10;0.7;;;0.7;;
22515;SDS011;11424;48.860;9.624;2023-05-16T23:12:10;0.9;;;1.7;;
22515;SDS011;11424;48.860;9.624;2023-05-16T23:17:10;1;;;1.1;;
22515;SDS011;11424;48.860;9.624;2023-05-16T23:22:10;0.9;;;2;;
22515;SDS011;11424;48.860;9.624;2023-05-16T23:27:10;0.9;;;1.1;;
22515;SDS011;11424;48.860;9.624;2023-05-16T23:32:10;1;;;1.2;;
22515;SDS011;11424;48.860;9.624;2023-05-16T23:37:10;0.8;;;1.5;;
22515;SDS011;11424;48.860;9.624;2023-05-16T23:42:10;1.1;;;2.6;;
22515;SDS011;11424;48.860;9.624;2023-05-16T23:47:10;1;;;1.1;;
22515;SDS011;11424;48.860;9.624;2023-05-16T23:52:10;1.1;;;2;;
22515;SDS011;11424;48.860;9.624;2023-05-16T23:57:10;1.1;;;1.2;;
